Time;durP1;ratioP1;P1;durP2;ratioP2;P2;SDS_P1;SDS_P2;PMS_P1;PMS_P2;Temp;Humidity;BMP_temperature;BMP_pressure;BME280_temperature;BME280_humidity;BME280_pressure;Samples;Min_cycle;Max_cycle;Signal;HPM_P1;HPM_P2
2021/06/12 00:01:22;;;;;;;6.63;3.50;;;;;;;21.58;69.55;101613.03;4867388;29;20054;-75
2021/06/12 00:08:59;;;;;;;7.95;3.20;;;;;;;21.42;69.69;101611.41;4844832;23;20058;-80
2021/06/12 00:11:31;;;;;;;6.03;2.65;;;;;;;21.69;68.51;101610.47;4838494;29;20052;-82
2021/06/12 00:13:59;;;;;;;5.88;2.28;;;;;;;21.06;70.02;101612.56;4905797;29;20057;-78
2021/06/12 00:16:28;;;;;;;4.75;2.20;;;;;;;20.99;70.49;101615.97;4877454;29;20054;-80
2021/06/12 00:18:56;;;;;;;5.75;2.20;;;;;;;21.17;69.83;101616.44;4802610;29;20429;-84
2021/06/12 00:21:25;;;;;;;3.00;1.92;;;;;;;20.89;70.66;101632.47;4818351;29;20051;-81
2021/06/12 00:23:54;;;;;;;3.88;1.95;;;;;;;20.57;71.78;101631.66;4892833;29;20502;-81
2021/06/12 00:26:22;;;;;;;4.20;2.20;;;;;;;20.46;71.50;101633.34;4813573;29;20053;-87
2021/06/12 00:28:55;;;;;;;3.63;1.88;;;;;;;20.49;71.21;101621.44;4799542;29;20081;-85
2021/06/12 00:31:23;;;;;;;3.00;2.00;;;;;;;20.57;70.59;101616.84;4873365;29;20057;-85
2021/06/12 00:33:54;;;;;;;3.10;1.90;;;;;;;20.82;69.14;101626.69;4827240;29;20407;-85
2021/06/12 00:36:22;;;;;;;5.72;2.15;;;;;;;20.94;68.08;101624.63;4824941;29;20050;-86
2021/06/12 00:38:51;;;;;;;3.28;1.65;;;;;;;20.75;68.41;101643.31;4893026;29;20061;-85
2021/06/12 00:41:22;;;;;;;2.78;1.55;;;;;;;20.58;68.37;101640.84;4836580;29;20054;-78
2021/06/12 00:43:54;;;;;;;3.47;1.65;;;;;;;20.80;67.04;101638.25;4847482;29;20053;-85
2021/06/12 00:46:25;;;;;;;2.53;1.60;;;;;;;20.84;66.80;101635.56;4877022;29;20148;-81
2021/06/12 00:48:55;;;;;;;4.68;1.70;;;;;;;20.42;67.90;101646.41;4859373;29;20054;-82
2021/06/12 00:51:22;;;;;;;3.60;1.70;;;;;;;20.11;69.11;101649.91;4782636;29;20491;-83
2021/06/12 00:53:53;;;;;;;4.03;1.50;;;;;;;20.45;67.69;101650.50;4867390;29;20058;-84
2021/06/12 00:56:23;;;;;;;5.82;2.35;;;;;;;19.92;68.99;101651.72;4812700;29;20058;-82
2021/06/12 00:58:52;;;;;;;4.32;1.55;;;;;;;19.86;69.29;101637.16;4889801;29;20065;-82
2021/06/12 01:01:40;;;;;;;;;;;;;;;19.90;68.70;101634.47;4815297;29;20065;-88
2021/06/12 01:04:08;;;;;;;3.63;1.80;;;;;;;19.92;68.50;101646.13;4876585;29;20380;-86
2021/06/12 01:06:45;;;;;;;3.22;1.50;;;;;;;20.03;68.12;101636.88;4829405;29;20055;-82
2021/06/12 01:09:14;;;;;;;2.92;1.48;;;;;;;19.86;68.50;101642.75;4815593;29;20049;-86
2021/06/12 01:12:09;;;;;;;3.65;1.58;;;;;;;20.09;67.85;101635.47;4830079;29;20054;-84
2021/06/12 01:15:06;;;;;;;6.55;2.08;;;;;;;20.08;67.53;101625.41;4828613;29;20428;-83
2021/06/12 01:17:57;;;;;;;2.70;1.45;;;;;;;20.26;66.77;101633.56;4879674;29;20062;-83
2021/06/12 01:20:49;;;;;;;3.42;1.50;;;;;;;20.44;66.39;101620.88;4805082;29;20049;-81
2021/06/12 01:23:58;;;;;;;5.97;1.55;;;;;;;20.43;65.98;101624.84;4807727;29;20064;-81
2021/06/12 01:27:03;;;;;;;2.88;1.30;;;;;;;20.30;66.25;101626.88;4828835;29;20065;-80
2021/06/12 01:30:03;;;;;;;4.60;1.65;;;;;;;20.49;65.81;101624.22;4789021;29;20062;-87
2021/06/12 01:32:35;;;;;;;4.22;1.75;;;;;;;20.34;66.95;101624.19;4831713;29;20414;-83
2021/06/12 01:35:09;;;;;;;3.10;1.38;;;;;;;20.25;67.39;101626.31;4838515;29;20083;-85
2021/06/12 01:37:42;;;;;;;3.78;1.83;;;;;;;19.89;68.65;101627.25;4818762;29;20050;-77
2021/06/12 01:40:14;;;;;;;3.70;1.52;;;;;;;19.53;69.99;101642.13;4835771;29;20494;-85
2021/06/12 01:42:46;;;;;;;3.13;1.75;;;;;;;19.37;70.75;101641.19;4820098;29;20053;-84
2021/06/12 01:45:51;;;;;;;3.85;1.55;;;;;;;19.69;69.68;101631.84;4832441;29;20525;-81
2021/06/12 01:48:27;;;;;;;3.17;1.38;;;;;;;19.72;69.13;101633.94;4899830;29;20068;-83
2021/06/12 01:50:58;;;;;;;3.00;1.60;;;;;;;19.54;69.33;101634.56;4868576;29;20045;-78
2021/06/12 01:53:32;;;;;;;2.58;1.25;;;;;;;19.95;68.21;101637.00;4852971;29;20429;-80
2021/06/12 01:56:31;;;;;;;4.53;1.52;;;;;;;20.09;67.61;101629.03;4887677;29;20053;-84
2021/06/12 01:59:04;;;;;;;3.03;1.40;;;;;;;19.94;67.29;101613.84;4853277;29;20068;-79
2021/06/12 02:01:33;;;;;;;7.18;1.48;;;;;;;19.63;67.55;101629.66;4862872;29;20052;-78
2021/06/12 02:04:04;;;;;;;2.63;1.20;;;;;;;19.45;68.04;101636.66;4866643;29;20041;-81
2021/06/12 02:07:05;;;;;;;2.45;1.23;;;;;;;19.36;68.92;101635.97;4906386;29;20544;-82
2021/06/12 02:09:39;;;;;;;2.35;1.17;;;;;;;19.28;69.42;101634.09;4843788;29;20054;-84
2021/06/12 02:12:09;;;;;;;2.47;1.30;;;;;;;19.48;68.52;101636.78;4824857;29;20185;-82
2021/06/12 02:14:39;;;;;;;4.13;1.35;;;;;;;19.11;70.22;101642.69;4824702;29;20058;-79
2021/06/12 02:17:11;;;;;;;3.08;1.40;;;;;;;19.06;70.50;101649.31;4836908;29;20059;-81
2021/06/12 02:19:41;;;;;;;4.10;1.50;;;;;;;19.21;70.48;101643.06;4794597;29;20065;-83
2021/06/12 02:22:11;;;;;;;2.85;1.40;;;;;;;18.96;71.57;101650.59;4783865;29;20058;-83
2021/06/12 02:24:41;;;;;;;4.47;1.70;;;;;;;18.68;73.26;101657.16;4787010;29;20419;-83
2021/06/12 02:27:10;;;;;;;3.97;1.80;;;;;;;18.60;74.05;101658.06;4771411;29;20055;-82
2021/06/12 02:29:53;;;;;;;3.60;1.80;;;;;;;18.52;74.81;101653.38;4813889;29;20057;-81
2021/06/12 02:32:27;;;;;;;3.38;1.65;;;;;;;18.57;74.78;101661.53;4814980;29;20322;-81
2021/06/12 02:34:58;;;;;;;2.65;1.65;;;;;;;18.66;74.91;101665.88;4784736;29;20057;-81
2021/06/12 02:37:38;;;;;;;2.22;1.60;;;;;;;18.62;75.15;101658.56;4743565;30;20055;-83
2021/06/12 02:40:09;;;;;;;2.45;1.60;;;;;;;18.85;74.39;101668.13;4769164;30;20436;-84
2021/06/12 02:42:38;;;;;;;5.40;1.80;;;;;;;18.78;74.80;101665.09;4775001;29;20066;-85
2021/06/12 02:45:08;;;;;;;4.18;1.75;;;;;;;18.75;74.33;101672.19;4744703;29;20051;-86
2021/06/12 02:47:59;;;;;;;2.05;1.27;;;;;;;18.66;74.62;101662.25;4759433;30;20059;-83
2021/06/12 02:50:32;;;;;;;2.72;1.45;;;;;;;18.49;74.60;101666.06;4819969;29;20055;-80
2021/06/12 02:53:04;;;;;;;7.03;1.88;;;;;;;18.42;73.51;101665.81;4772881;29;20056;-80
2021/06/12 02:55:36;;;;;;;2.17;1.20;;;;;;;18.35;73.95;101662.72;4771450;29;20065;-84
2021/06/12 02:58:06;;;;;;;2.72;1.17;;;;;;;18.30;73.28;101657.38;4804475;29;20157;-80
2021/06/12 03:00:36;;;;;;;4.35;1.38;;;;;;;18.13;73.48;101656.69;4827068;29;20054;-82
2021/06/12 03:03:05;;;;;;;3.78;1.30;;;;;;;18.12;73.66;101647.50;4814126;29;20454;-64
2021/06/12 03:05:37;;;;;;;5.35;1.20;;;;;;;18.36;73.05;101649.59;4821654;29;20054;-68
2021/06/12 03:08:05;;;;;;;3.85;1.33;;;;;;;18.41;72.35;101653.00;4837634;29;20065;-65
2021/06/12 03:10:34;;;;;;;5.88;1.10;;;;;;;18.46;72.05;101654.78;4821778;29;20438;-64
2021/06/12 03:13:04;;;;;;;3.85;1.40;;;;;;;18.49;71.73;101651.28;4837154;29;20050;-66
2021/06/12 03:15:33;;;;;;;2.17;1.30;;;;;;;18.15;73.20;101655.19;4836786;29;20069;-68
2021/06/12 03:18:03;;;;;;;3.47;1.40;;;;;;;18.13;73.52;101653.91;4835951;29;20494;-68
2021/06/12 03:20:31;;;;;;;3.30;1.27;;;;;;;18.30;72.89;101650.97;4838623;29;20069;-66
2021/06/12 03:23:02;;;;;;;2.25;1.40;;;;;;;18.65;71.76;101657.84;4837608;29;20085;-65
2021/06/12 03:25:30;;;;;;;2.78;1.45;;;;;;;18.76;71.38;101659.03;4837794;29;20049;-64
2021/06/12 03:27:58;;;;;;;2.72;1.50;;;;;;;18.36;73.51;101655.19;4837758;29;20050;-66
2021/06/12 03:30:30;;;;;;;3.40;1.83;;;;;;;18.04;74.74;101664.31;4837521;29;20066;-63
2021/06/12 03:32:59;;;;;;;3.03;1.48;;;;;;;18.13;74.97;101656.69;4836602;29;20069;-65
2021/06/12 03:35:27;;;;;;;4.97;1.60;;;;;;;18.56;73.29;101660.75;4900872;29;20057;-65
2021/06/12 03:37:54;;;;;;;4.57;1.70;;;;;;;18.43;73.38;101659.06;4839537;29;20493;-65
2021/06/12 03:40:23;;;;;;;4.32;1.70;;;;;;;18.69;73.03;101664.38;4839470;29;20062;-66
2021/06/12 03:42:52;;;;;;;3.38;1.90;;;;;;;18.57;73.61;101655.94;4903285;29;20061;-65
2021/06/12 03:45:21;;;;;;;3.75;1.92;;;;;;;18.68;73.44;101665.53;4809578;29;20053;-65
2021/06/12 03:47:50;;;;;;;6.22;2.47;;;;;;;18.10;75.92;101669.34;4903997;29;20042;-65
2021/06/12 03:50:20;;;;;;;5.35;2.40;;;;;;;18.32;75.62;101659.81;4840663;29;20054;-64
2021/06/12 03:52:49;;;;;;;7.30;2.50;;;;;;;18.56;74.35;101668.28;4840980;29;20467;-65
2021/06/12 03:55:17;;;;;;;8.73;2.90;;;;;;;18.30;74.95;101660.16;4842083;29;20068;-65
2021/06/12 03:57:45;;;;;;;5.00;3.15;;;;;;;18.05;76.95;101675.13;4839918;29;20322;-64
2021/06/12 04:00:14;;;;;;;5.50;3.20;;;;;;;18.13;76.12;101670.66;4840305;29;20065;-65
2021/06/12 04:02:42;;;;;;;10.55;3.70;;;;;;;18.13;76.64;101679.84;4840392;29;20073;-65
2021/06/12 04:05:12;;;;;;;5.57;3.42;;;;;;;18.14;76.36;101675.88;4841466;29;20057;-63
2021/06/12 04:07:40;;;;;;;7.47;3.60;;;;;;;18.19;76.09;101683.22;4840250;29;20054;-70
2021/06/12 04:10:10;;;;;;;6.15;3.42;;;;;;;17.89;77.67;101685.25;4841095;29;20062;-69
2021/06/12 04:12:38;;;;;;;7.32;3.40;;;;;;;17.81;78.26;101684.16;4840367;29;20046;-65
2021/06/12 04:15:06;;;;;;;6.68;3.72;;;;;;;18.05;77.09;101683.50;4840407;29;20080;-67
2021/06/12 04:22:01;;;;;;;5.15;3.38;;;;;;;17.69;77.70;101686.06;4840086;29;20503;-65
2021/06/12 04:24:29;;;;;;;5.00;2.80;;;;;;;17.82;77.77;101682.19;4840106;29;20053;-65
2021/06/12 04:26:56;;;;;;;4.15;2.70;;;;;;;18.21;76.46;101684.50;4841350;29;20065;-67
2021/06/12 04:29:24;;;;;;;6.10;3.05;;;;;;;18.20;75.79;101687.66;4841183;29;20058;-65
2021/06/12 04:36:18;;;;;;;5.35;2.92;;;;;;;17.56;78.88;101693.50;4840108;29;20058;-65
2021/06/12 04:38:46;;;;;;;5.38;2.90;;;;;;;17.46;79.45;101693.91;4840195;29;20378;-68
2021/06/12 04:41:13;;;;;;;5.75;2.70;;;;;;;17.16;80.97;101696.94;4840844;29;20501;-71
2021/06/12 04:43:40;;;;;;;5.68;2.83;;;;;;;17.48;80.27;101693.56;4840145;29;20053;-68
2021/06/12 04:46:08;;;;;;;6.15;3.10;;;;;;;17.65;79.42;101691.50;4838260;29;20512;-67
2021/06/12 04:48:38;;;;;;;6.57;3.20;;;;;;;17.50;80.03;101703.22;4837885;29;20406;-72
2021/06/12 04:51:06;;;;;;;6.03;2.97;;;;;;;17.49;79.50;101695.16;4839542;29;20061;-68
2021/06/12 04:53:33;;;;;;;6.90;3.50;;;;;;;17.50;79.96;101694.03;4839937;29;20050;-65
2021/06/12 04:56:01;;;;;;;6.60;3.55;;;;;;;17.63;79.59;101698.53;4839564;29;20065;-66
2021/06/12 04:58:28;;;;;;;6.97;3.40;;;;;;;17.44;79.90;101707.31;4837583;29;20054;-65
2021/06/12 05:01:00;;;;;;;7.03;3.30;;;;;;;17.36;80.28;101719.31;4840640;29;20050;-66
2021/06/12 05:03:27;;;;;;;5.75;3.53;;;;;;;17.20;81.02;101718.22;4886453;29;20054;-69
2021/06/12 05:05:55;;;;;;;6.32;3.20;;;;;;;16.91;82.39;101714.56;4902575;29;20478;-65
2021/06/12 05:08:22;;;;;;;5.35;3.47;;;;;;;17.09;82.39;101705.81;4840602;29;20049;-66
2021/06/12 05:10:50;;;;;;;5.05;3.40;;;;;;;17.18;81.96;101703.81;4840827;29;20084;-65
2021/06/12 05:13:17;;;;;;;5.30;3.33;;;;;;;17.29;81.51;101715.41;4839496;29;20057;-65
2021/06/12 05:15:47;;;;;;;5.95;3.30;;;;;;;17.12;81.89;101709.91;4839668;29;20065;-65
2021/06/12 05:22:55;;;;;;;7.35;2.72;;;;;;;17.66;79.88;101703.47;4839642;29;20046;-66
2021/06/12 05:25:23;;;;;;;7.10;3.22;;;;;;;17.91;77.96;101705.25;4837288;29;20133;-67
2021/06/12 05:27:50;;;;;;;4.53;2.42;;;;;;;17.90;78.34;101698.84;4839631;29;20053;-66
2021/06/12 05:30:18;;;;;;;4.95;2.63;;;;;;;17.74;78.19;101695.03;4838198;29;20058;-64
2021/06/12 05:32:45;;;;;;;6.18;2.78;;;;;;;17.71;78.06;101695.69;4839411;29;20061;-63
2021/06/12 05:35:13;;;;;;;7.72;2.75;;;;;;;18.14;77.28;101692.59;4840515;29;20054;-65
2021/06/12 05:37:41;;;;;;;4.95;2.55;;;;;;;18.20;76.24;101685.66;4840950;29;20077;-66
2021/06/12 05:40:10;;;;;;;4.13;2.80;;;;;;;18.16;75.39;101687.50;4837891;29;20390;-65
2021/06/12 05:42:38;;;;;;;6.55;3.40;;;;;;;17.80;76.76;101696.47;4838353;29;20061;-64
2021/06/12 05:45:08;;;;;;;6.68;2.80;;;;;;;17.99;76.58;101702.38;4837838;29;20049;-66
2021/06/12 05:47:36;;;;;;;6.03;3.10;;;;;;;17.92;76.87;101704.09;4838813;29;20054;-65
2021/06/12 05:50:05;;;;;;;5.57;2.92;;;;;;;17.85;77.29;101709.41;4838917;29;20054;-65
2021/06/12 05:52:32;;;;;;;6.63;3.30;;;;;;;17.89;77.03;101707.53;4839999;29;20066;-65
2021/06/12 05:55:00;;;;;;;4.05;2.60;;;;;;;17.69;77.78;101709.16;4838951;29;20054;-65
2021/06/12 05:57:28;;;;;;;4.18;2.47;;;;;;;17.91;77.42;101700.50;4840232;29;20061;-65
2021/06/12 05:59:56;;;;;;;6.55;2.80;;;;;;;18.49;75.01;101693.16;4836692;29;20446;-64
2021/06/12 06:02:25;;;;;;;4.97;2.97;;;;;;;18.76;73.46;101706.47;4839824;29;20504;-65
2021/06/12 06:04:53;;;;;;;6.82;3.05;;;;;;;18.61;73.58;101709.94;4839083;29;20050;-65
2021/06/12 06:07:20;;;;;;;6.28;2.67;;;;;;;18.92;72.61;101711.06;4838583;29;20060;-65
2021/06/12 06:09:48;;;;;;;6.15;3.20;;;;;;;18.90;72.35;101704.19;4839755;29;20060;-65
2021/06/12 06:12:16;;;;;;;8.95;2.80;;;;;;;18.98;72.46;101706.91;4840514;29;20065;-67
2021/06/12 06:14:43;;;;;;;6.25;2.80;;;;;;;18.95;71.89;101713.16;4839096;29;20394;-65
2021/06/12 06:17:11;;;;;;;7.53;2.60;;;;;;;18.64;72.93;101703.66;4838842;29;20057;-65
2021/06/12 06:19:39;;;;;;;5.25;2.45;;;;;;;18.66;73.38;101704.94;4840221;29;20144;-66
2021/06/12 06:22:06;;;;;;;3.83;2.63;;;;;;;18.29;75.02;101708.72;4838883;29;20406;-67
2021/06/12 06:24:34;;;;;;;5.97;2.70;;;;;;;18.45;74.38;101714.50;4838566;29;20057;-68
2021/06/12 06:27:01;;;;;;;5.57;2.50;;;;;;;18.50;74.22;101708.72;4839180;29;20050;-69
2021/06/12 06:29:28;;;;;;;4.75;2.67;;;;;;;18.47;74.50;101710.22;4838946;29;20061;-68
2021/06/12 06:31:56;;;;;;;4.03;2.60;;;;;;;18.93;73.52;101714.69;4838388;29;20054;-65
2021/06/12 06:34:23;;;;;;;9.57;2.97;;;;;;;19.08;72.43;101716.81;4838369;29;20068;-64
2021/06/12 06:36:50;;;;;;;7.50;3.10;;;;;;;19.11;72.06;101718.91;4838296;29;20494;-65
2021/06/12 06:39:18;;;;;;;4.53;2.70;;;;;;;19.07;72.73;101720.78;4839653;29;20058;-65
2021/06/12 06:41:45;;;;;;;6.80;2.95;;;;;;;19.21;72.07;101726.03;4838116;29;20061;-66
2021/06/12 06:44:13;;;;;;;8.45;2.85;;;;;;;19.33;71.40;101726.91;4838531;29;20052;-67
2021/06/12 06:46:41;;;;;;;8.35;2.70;;;;;;;19.81;69.43;101724.09;4838376;29;20046;-66
2021/06/12 06:53:34;;;;;;;8.10;3.17;;;;;;;19.54;69.81;101738.78;4839518;29;20061;-66
2021/06/12 06:56:04;;;;;;;7.20;3.05;;;;;;;19.55;69.43;101740.41;4821902;29;20060;-65
2021/06/12 06:58:32;;;;;;;5.18;3.35;;;;;;;19.56;69.37;101736.44;4838394;29;20054;-65
2021/06/12 07:01:03;;;;;;;5.10;3.28;;;;;;;19.73;69.30;101729.81;4837284;29;20046;-66
2021/06/12 07:03:33;;;;;;;6.80;3.50;;;;;;;19.95;68.09;101735.72;4839777;29;20529;-63
2021/06/12 07:06:01;;;;;;;7.70;3.53;;;;;;;19.78;68.83;101733.19;4837396;29;20077;-66
2021/06/12 07:08:29;;;;;;;8.63;3.85;;;;;;;19.77;68.75;101728.75;4839421;29;20077;-66
2021/06/12 07:10:56;;;;;;;8.45;3.40;;;;;;;19.55;69.35;101740.41;4839351;29;20382;-66
2021/06/12 07:13:24;;;;;;;6.30;3.35;;;;;;;19.52;69.90;101738.31;4841247;29;20058;-70
2021/06/12 07:15:52;;;;;;;6.95;3.20;;;;;;;19.98;68.52;101737.81;4843132;29;20142;-65
2021/06/12 07:18:19;;;;;;;8.07;4.07;;;;;;;19.84;68.93;101751.34;4839655;29;20065;-66
2021/06/12 07:20:47;;;;;;;8.75;4.22;;;;;;;19.92;68.64;101750.41;4842678;29;20057;-65
2021/06/12 07:23:15;;;;;;;8.68;4.45;;;;;;;19.85;68.93;101757.75;4842535;29;20482;-65
2021/06/12 07:25:47;;;;;;;7.40;4.85;;;;;;;19.67;69.59;101759.16;4904235;29;20058;-66
2021/06/12 07:28:15;;;;;;;10.70;5.35;;;;;;;19.35;70.23;101760.91;4840864;29;20062;-65
2021/06/12 07:30:43;;;;;;;8.95;5.60;;;;;;;19.72;69.59;101775.69;4840779;29;20527;-67
2021/06/12 07:33:12;;;;;;;9.70;4.93;;;;;;;19.58;70.19;101775.25;4824826;29;20054;-67
2021/06/12 07:35:41;;;;;;;7.35;4.90;;;;;;;19.49;70.21;101778.13;4841147;29;20054;-68
2021/06/12 07:38:09;;;;;;;7.68;5.28;;;;;;;19.23;71.26;101776.78;4842433;29;20050;-68
2021/06/12 07:40:36;;;;;;;8.35;5.97;;;;;;;19.26;70.86;101784.47;4824910;29;20058;-65
2021/06/12 07:43:04;;;;;;;17.73;5.32;;;;;;;19.44;69.60;101795.13;4840291;29;20053;-67
2021/06/12 07:45:32;;;;;;;11.07;7.32;;;;;;;19.15;71.25;101800.84;4840218;29;20065;-65
2021/06/12 07:47:59;;;;;;;12.00;7.50;;;;;;;18.58;72.61;101808.28;4840933;29;20069;-69
2021/06/12 07:50:27;;;;;;;11.77;7.03;;;;;;;18.56;73.40;101816.19;4839909;29;20441;-67
2021/06/12 07:52:55;;;;;;;12.57;8.43;;;;;;;18.43;74.09;101811.72;4840707;29;20062;-67
2021/06/12 07:55:22;;;;;;;10.60;7.72;;;;;;;18.96;73.27;101806.13;4840605;29;20058;-65
2021/06/12 07:57:51;;;;;;;11.43;8.32;;;;;;;19.15;71.27;101814.81;4841760;29;20061;-66
2021/06/12 08:00:19;;;;;;;13.57;8.60;;;;;;;18.75;74.03;101803.38;4841745;29;20386;-68
2021/06/12 08:02:47;;;;;;;10.35;8.07;;;;;;;19.33;71.25;101807.91;4840304;29;20311;-69
2021/06/12 08:09:37;;;;;;;13.05;8.38;;;;;;;19.10;72.45;101812.25;4840948;29;20405;-65
2021/06/12 08:12:06;;;;;;;13.40;8.50;;;;;;;19.18;72.60;101813.31;4839940;29;20516;-69
2021/06/12 08:14:33;;;;;;;13.80;8.57;;;;;;;19.38;70.16;101812.47;4839800;29;20421;-67
2021/06/12 08:17:01;;;;;;;11.98;8.13;;;;;;;19.22;71.02;101815.06;4839732;29;20065;-66
2021/06/12 08:23:57;;;;;;;13.40;8.43;;;;;;;18.91;71.79;101823.09;4839537;29;20058;-69
2021/06/12 08:26:24;;;;;;;14.45;9.93;;;;;;;19.00;71.35;101827.44;4840274;29;20499;-66
2021/06/12 08:28:53;;;;;;;13.55;10.13;;;;;;;18.57;73.20;101829.78;4839994;29;20058;-66
2021/06/12 08:31:21;;;;;;;17.00;11.57;;;;;;;18.70;72.42;101823.13;4840892;29;20065;-66
2021/06/12 08:38:17;;;;;;;17.15;12.63;;;;;;;18.72;73.74;101820.81;4840351;29;20520;-66
2021/06/12 08:40:48;;;;;;;19.42;14.23;;;;;;;19.04;72.36;101827.56;4838941;29;20054;-67
2021/06/12 08:43:27;;;;;;;18.83;13.50;;;;;;;18.48;73.77;101831.03;4838877;29;20059;-66
2021/06/12 08:45:55;;;;;;;18.98;14.07;;;;;;;18.28;74.73;101831.78;4840082;29;20054;-69
2021/06/12 08:48:25;;;;;;;22.03;14.57;;;;;;;18.46;74.11;101838.91;4841639;29;20057;-65
2021/06/12 08:55:30;;;;;;;23.38;15.77;;;;;;;18.56;73.52;101836.53;4840000;29;20049;-65
2021/06/12 08:57:58;;;;;;;20.10;15.55;;;;;;;18.87;72.71;101845.31;4839783;29;20494;-65
2021/06/12 09:00:25;;;;;;;21.05;15.00;;;;;;;18.57;73.51;101848.50;4838143;29;20064;-64
2021/06/12 09:03:08;;;;;;;23.88;15.52;;;;;;;18.98;72.07;101848.50;4839920;29;20057;-65
2021/06/12 09:05:48;;;;;;;24.35;16.70;;;;;;;18.31;74.77;101842.25;4841202;29;20054;-64
2021/06/12 09:08:21;;;;;;;23.15;16.25;;;;;;;18.57;73.53;101854.09;4839742;29;20066;-71
2021/06/12 09:10:57;;;;;;;24.00;18.00;;;;;;;18.05;75.95;101866.69;4838159;29;20062;-68
2021/06/12 09:13:38;;;;;;;26.17;17.65;;;;;;;18.08;76.17;101850.09;4853839;29;20054;-69
2021/06/12 09:16:08;;;;;;;24.30;17.58;;;;;;;18.60;74.36;101845.06;4839746;29;20053;-68
2021/06/12 09:18:41;;;;;;;26.08;16.90;;;;;;;18.34;74.43;101828.44;4840998;29;20410;-66
2021/06/12 09:21:22;;;;;;;24.65;16.88;;;;;;;18.89;72.43;101825.41;4838769;29;20069;-68
2021/06/12 09:23:53;;;;;;;23.83;17.17;;;;;;;18.69;73.63;101831.84;4839601;29;20062;-69
2021/06/12 09:26:21;;;;;;;24.50;16.63;;;;;;;19.07;71.47;101833.28;4823491;29;20058;-68
2021/06/12 09:28:54;;;;;;;23.65;16.52;;;;;;;19.76;69.15;101841.75;4838977;29;20390;-68
2021/06/12 09:31:27;;;;;;;25.58;17.10;;;;;;;18.74;72.24;101845.59;4839462;29;20054;-66
2021/06/12 09:33:55;;;;;;;24.75;17.35;;;;;;;19.25;70.80;101838.72;4837876;29;20054;-65
2021/06/12 09:36:33;;;;;;;25.33;17.65;;;;;;;19.67;69.27;101840.22;4839098;29;20053;-72
2021/06/12 09:39:09;;;;;;;25.85;17.17;;;;;;;19.52;68.48;101838.09;4841337;29;20061;-67
2021/06/12 09:41:40;;;;;;;29.20;16.35;;;;;;;19.81;69.29;101841.53;4839278;29;20065;-67
2021/06/12 09:44:08;;;;;;;28.95;16.90;;;;;;;20.37;66.67;101834.19;4839062;29;20057;-65
2021/06/12 09:46:45;;;;;;;24.60;16.10;;;;;;;20.82;65.10;101842.34;4839619;29;20058;-66
2021/06/12 09:53:50;;;;;;;28.20;17.75;;;;;;;20.36;65.21;101832.56;4838506;29;20060;-66
2021/06/12 09:56:19;;;;;;;23.95;17.10;;;;;;;20.35;65.45;101828.13;4886301;29;20056;-66
2021/06/12 09:58:47;;;;;;;24.52;17.42;;;;;;;20.08;66.22;101846.41;4836701;29;20054;-66
2021/06/12 10:01:17;;;;;;;26.75;18.50;;;;;;;19.35;69.26;101846.69;4838958;29;20484;-65
2021/06/12 10:03:46;;;;;;;24.30;16.73;;;;;;;20.05;67.36;101851.88;4839578;29;20077;-65
2021/06/12 10:10:51;;;;;;;25.55;16.58;;;;;;;20.02;67.99;101835.81;4838795;29;20058;-69
2021/06/12 10:13:18;;;;;;;25.20;15.98;;;;;;;20.17;66.80;101837.13;4838685;29;20058;-66
2021/06/12 10:15:49;;;;;;;24.38;15.77;;;;;;;19.98;67.18;101829.28;4824241;29;20473;-66
2021/06/12 10:18:20;;;;;;;23.90;15.43;;;;;;;20.26;66.43;101835.03;4822483;29;20521;-65
2021/06/12 10:25:17;;;;;;;24.25;15.02;;;;;;;19.89;67.91;101835.00;4837988;29;20057;-66
2021/06/12 10:27:44;;;;;;;24.90;15.35;;;;;;;20.14;67.04;101847.00;4838173;29;20068;-66
2021/06/12 10:30:14;;;;;;;24.55;15.13;;;;;;;20.55;65.77;101838.34;4807970;29;20058;-65
2021/06/12 10:32:47;;;;;;;21.90;14.93;;;;;;;20.61;65.15;101838.91;4822061;29;20070;-65
2021/06/12 10:35:18;;;;;;;23.13;14.73;;;;;;;20.78;64.66;101845.03;4837207;29;20049;-67
2021/06/12 10:38:00;;;;;;;24.35;14.77;;;;;;;20.20;65.96;101848.44;4807197;29;20054;-65
2021/06/12 10:40:40;;;;;;;23.38;15.13;;;;;;;20.17;65.95;101846.34;4838373;29;20128;-65
2021/06/12 10:43:22;;;;;;;20.95;14.82;;;;;;;20.34;65.62;101857.28;4838313;29;20050;-67
2021/06/12 10:46:02;;;;;;;22.30;14.35;;;;;;;20.59;65.17;101841.25;4836883;29;20428;-65
2021/06/12 10:48:46;;;;;;;22.37;14.83;;;;;;;20.22;66.51;101857.28;4900192;29;20525;-65
2021/06/12 10:51:34;;;;;;;21.85;14.55;;;;;;;20.28;65.89;101866.25;4837499;29;20077;-65
2021/06/12 10:54:07;;;;;;;24.00;14.63;;;;;;;20.15;66.06;101857.84;4781547;30;20075;-66
2021/06/12 10:56:37;;;;;;;24.50;15.23;;;;;;;20.18;66.16;101853.56;4781146;30;20059;-64
2021/06/12 10:59:05;;;;;;;21.30;13.20;;;;;;;20.27;66.13;101859.84;4781398;29;20066;-65
2021/06/12 11:01:33;;;;;;;19.20;12.98;;;;;;;20.45;64.93;101863.22;4781518;29;20060;-65
2021/06/12 11:04:16;;;;;;;20.27;13.55;;;;;;;20.43;64.99;101869.19;4781367;30;20508;-65
2021/06/12 11:06:55;;;;;;;22.10;14.43;;;;;;;20.11;65.70;101862.50;4782159;29;20507;-65
2021/06/12 11:09:27;;;;;;;19.77;13.80;;;;;;;20.50;64.11;101862.97;4780477;29;20059;-65
2021/06/12 11:12:13;;;;;;;21.75;12.60;;;;;;;20.46;63.86;101860.06;4765682;30;20090;-67
2021/06/12 11:14:40;;;;;;;20.13;13.52;;;;;;;20.82;63.08;101864.75;4780915;29;20071;-67
2021/06/12 11:17:11;;;;;;;22.35;13.90;;;;;;;21.22;62.12;101863.56;4752169;29;20127;-66
2021/06/12 11:19:55;;;;;;;18.92;13.93;;;;;;;20.89;63.17;101853.75;4780935;30;20063;-64
2021/06/12 11:22:32;;;;;;;17.95;12.45;;;;;;;21.08;61.76;101859.53;4781217;30;20067;-66
2021/06/12 11:25:00;;;;;;;18.60;12.23;;;;;;;20.67;62.59;101851.50;4781118;30;20138;-64
2021/06/12 11:27:31;;;;;;;18.90;12.98;;;;;;;20.74;63.89;101865.72;4781658;29;20056;-65
2021/06/12 11:30:13;;;;;;;19.98;13.18;;;;;;;20.81;63.01;101858.34;4767113;29;20051;-68
2021/06/12 11:33:09;;;;;;;15.93;11.88;;;;;;;21.10;61.61;101860.00;4836939;29;20054;-67
2021/06/12 11:40:03;;;;;;;14.02;9.98;;;;;;;20.87;62.72;101844.91;4837512;29;20056;-71
2021/06/12 11:42:45;;;;;;;14.43;10.68;;;;;;;21.40;61.64;101846.44;4836339;29;20461;-71
2021/06/12 11:45:22;;;;;;;14.38;9.48;;;;;;;21.32;60.94;101855.84;4834870;29;20060;-70
2021/06/12 11:47:51;;;;;;;15.85;9.57;;;;;;;21.37;60.97;101850.78;4836129;29;20238;-64
2021/06/12 11:50:32;;;;;;;13.63;9.88;;;;;;;21.59;60.93;101846.53;4837068;29;20054;-66
2021/06/12 11:57:16;;;;;;;11.98;8.43;;;;;;;21.58;60.15;101839.31;4838415;29;20520;-65
2021/06/12 11:59:44;;;;;;;12.13;8.18;;;;;;;22.15;59.37;101839.59;4840903;29;20050;-74
2021/06/12 12:02:13;;;;;;;12.25;8.48;;;;;;;21.99;59.02;101845.22;4839068;29;20061;-66
2021/06/12 12:04:45;;;;;;;14.88;9.05;;;;;;;21.41;61.07;101846.06;4841015;29;20061;-66
2021/06/12 12:11:39;;;;;;;14.82;10.05;;;;;;;21.48;60.88;101848.28;4839069;29;20070;-66
2021/06/12 12:14:06;;;;;;;14.80;9.73;;;;;;;20.69;63.65;101840.75;4839243;29;20058;-64
2021/06/12 12:16:36;;;;;;;13.82;9.20;;;;;;;20.83;63.19;101853.22;4838842;29;20061;-65
2021/06/12 12:19:07;;;;;;;12.00;9.15;;;;;;;21.23;62.55;101856.78;4840219;29;20061;-72
2021/06/12 12:26:20;;;;;;;;;;;;;;;21.17;63.26;101844.22;4840957;29;20077;-76
2021/06/12 12:29:14;;;;;;;19.95;13.43;;;;;;;21.48;61.81;101848.28;4839514;29;19931;-73
2021/06/12 12:31:43;;;;;;;18.90;12.13;;;;;;;21.78;60.57;101846.69;4824932;29;20054;-68
2021/06/12 12:34:11;;;;;;;18.40;13.20;;;;;;;21.76;61.21;101841.41;4839184;29;20050;-66
2021/06/12 12:36:44;;;;;;;18.48;13.57;;;;;;;21.93;60.34;101840.28;4838767;29;20050;-72
2021/06/12 12:39:12;;;;;;;19.63;11.75;;;;;;;22.31;59.51;101840.38;4824308;29;20058;-63
2021/06/12 12:41:39;;;;;;;18.65;13.77;;;;;;;21.87;60.20;101839.72;4823444;29;20061;-65
2021/06/12 12:44:16;;;;;;;18.48;13.32;;;;;;;21.79;60.84;101834.28;4840101;29;20073;-70
2021/06/12 12:46:46;;;;;;;17.92;13.93;;;;;;;21.87;59.87;101844.50;4838887;29;20054;-65
2021/06/12 12:49:22;;;;;;;19.15;14.05;;;;;;;21.93;59.70;101849.47;4839145;29;20054;-66
2021/06/12 12:51:50;;;;;;;19.95;14.57;;;;;;;;;;4822053;29;20065;-62
2021/06/12 12:54:18;;;;;;;18.20;14.13;;;;;;;22.13;59.49;101851.19;4839788;29;20065;-68